createdAt,value
2023-07-10T00:00:32.556Z,19.98
2023-07-10T00:01:30.676Z,18.62
2023-07-10T00:02:27.779Z,19.29
2023-07-10T00:03:24.771Z,19.54
2023-07-10T00:04:22.155Z,19.03
2023-07-10T00:05:22.567Z,20.24
2023-07-10T00:06:20.076Z,20.19
2023-07-10T00:07:16.874Z,19.53
2023-07-10T00:08:14.211Z,19.44
2023-07-10T00:09:11.161Z,20.14
2023-07-10T00:10:11.456Z,20.21
2023-07-10T00:11:27.916Z,19.38
2023-07-10T00:12:24.744Z,19.34
2023-07-10T00:13:23.289Z,19.76
2023-07-10T00:14:24.585Z,19.35
2023-07-10T00:15:23.629Z,19.38
2023-07-10T00:16:22.766Z,19.65
2023-07-10T00:17:19.760Z,19.05
2023-07-10T00:18:19.172Z,19.47
2023-07-10T00:19:16.630Z,19.08
2023-07-10T00:20:18.945Z,19.58
2023-07-10T00:21:16.921Z,19.16
2023-07-10T00:22:13.729Z,19.38
2023-07-10T00:23:10.589Z,18.88
2023-07-10T00:24:08.445Z,19.27
2023-07-10T00:25:05.894Z,19.05
2023-07-10T00:26:03.226Z,19.24
2023-07-10T00:27:00.312Z,18.92
2023-07-10T00:27:57.152Z,19.53
2023-07-10T00:28:57.174Z,18.41
2023-07-10T00:29:53.954Z,19.33
2023-07-10T00:30:51.190Z,19.34
2023-07-10T00:31:47.974Z,18.82
2023-07-10T00:32:46.670Z,19.33
2023-07-10T00:33:43.413Z,18.94
2023-07-10T00:34:41.138Z,18.50
2023-07-10T00:35:38.468Z,19.22
2023-07-10T00:36:39.530Z,18.48
2023-07-10T00:37:36.546Z,18.51
2023-07-10T00:38:33.387Z,18.74
2023-07-10T00:39:34.658Z,19.44
2023-07-10T00:40:34.673Z,19.57
2023-07-10T00:41:36.576Z,19.50
2023-07-10T00:42:34.001Z,19.48
2023-07-10T00:43:37.353Z,19.34
2023-07-10T00:44:41.535Z,18.75
2023-07-10T00:45:38.374Z,19.27
2023-07-10T00:46:43.438Z,19.30
2023-07-10T00:47:46.537Z,18.73
2023-07-10T00:48:54.194Z,18.95
2023-07-10T00:49:57.903Z,19.15
2023-07-10T00:50:58.663Z,18.99
2023-07-10T00:51:55.468Z,19.00
2023-07-10T00:52:54.539Z,18.22
2023-07-10T00:53:54.404Z,18.83
2023-07-10T00:54:55.871Z,17.73
2023-07-10T00:55:57.859Z,18.75
2023-07-10T00:56:55.622Z,18.70
2023-07-10T00:58:05.067Z,18.48
2023-07-10T00:59:25.136Z,18.79
2023-07-10T01:00:24.565Z,18.84
2023-07-10T01:01:25.090Z,17.59
2023-07-10T01:02:23.781Z,18.85
2023-07-10T01:03:20.749Z,18.73
2023-07-10T01:04:17.961Z,18.46
2023-07-10T01:05:17.687Z,18.59
2023-07-10T01:06:16.347Z,18.47
2023-07-10T01:07:16.814Z,18.35
2023-07-10T01:08:13.859Z,17.91
2023-07-10T01:09:10.623Z,18.33
2023-07-10T01:10:09.915Z,18.09
2023-07-10T01:11:06.937Z,18.14
2023-07-10T01:12:07.163Z,17.95
2023-07-10T01:13:03.970Z,18.20
2023-07-10T01:14:05.685Z,18.21
2023-07-10T01:15:05.095Z,18.81
2023-07-10T01:16:02.867Z,18.33
2023-07-10T01:16:59.864Z,18.65
2023-07-10T01:17:56.760Z,18.30
2023-07-10T01:18:55.274Z,18.15
2023-07-10T01:20:02.523Z,18.25
2023-07-10T01:21:34.026Z,18.76
2023-07-10T01:22:30.899Z,18.81
2023-07-10T01:23:28.012Z,18.22
2023-07-10T01:24:25.639Z,18.74
2023-07-10T01:25:22.558Z,18.22
2023-07-10T01:26:19.708Z,18.77
2023-07-10T01:27:16.719Z,18.21
2023-07-10T01:28:35.177Z,17.78
2023-07-10T01:29:49.028Z,18.50
2023-07-10T01:30:48.940Z,18.56
2023-07-10T01:31:49.456Z,18.39
2023-07-10T01:32:47.221Z,17.62
2023-07-10T01:34:06.094Z,17.55
2023-07-10T01:35:07.204Z,17.86
2023-07-10T01:36:07.210Z,17.74
2023-07-10T01:37:07.138Z,18.54
2023-07-10T01:38:03.950Z,18.41
2023-07-10T01:39:25.016Z,18.44
2023-07-10T01:40:32.227Z,18.03
2023-07-10T01:41:35.579Z,18.55
2023-07-10T01:42:32.441Z,18.01
2023-07-10T01:43:29.259Z,18.28
2023-07-10T01:44:30.117Z,17.92
2023-07-10T01:45:29.028Z,18.20
2023-07-10T01:46:28.193Z,17.62
2023-07-10T01:47:25.765Z,17.94
2023-07-10T01:48:29.067Z,18.18
2023-07-10T01:49:36.052Z,18.20
2023-07-10T01:50:32.858Z,18.19
2023-07-10T01:51:30.138Z,18.23
2023-07-10T01:52:27.152Z,17.73
2023-07-10T01:53:24.179Z,17.95
2023-07-10T01:54:20.998Z,17.90
2023-07-10T01:55:20.932Z,17.86
2023-07-10T01:56:21.826Z,18.76
2023-07-10T01:57:24.312Z,17.71
2023-07-10T01:58:21.297Z,18.66
2023-07-10T01:59:18.022Z,18.02
2023-07-10T02:00:15.450Z,17.62
2023-07-10T02:01:12.300Z,18.26
2023-07-10T02:02:10.617Z,17.52
2023-07-10T02:03:08.830Z,17.98
2023-07-10T02:04:06.061Z,17.29
2023-07-10T02:05:03.030Z,17.19
2023-07-10T02:05:59.978Z,16.84
2023-07-10T02:06:57.321Z,17.32
2023-07-10T02:07:54.102Z,17.68
2023-07-10T02:08:50.913Z,17.44
2023-07-10T02:09:47.729Z,18.06
2023-07-10T02:10:45.699Z,18.10
2023-07-10T02:11:42.761Z,17.32
2023-07-10T02:12:39.557Z,18.01
2023-07-10T02:13:36.373Z,17.53
2023-07-10T02:14:33.192Z,16.73
2023-07-10T02:15:30.125Z,17.86
2023-07-10T02:16:27.120Z,18.19
2023-07-10T02:17:24.067Z,18.17
2023-07-10T02:18:21.039Z,17.31
2023-07-10T02:19:19.615Z,17.15
2023-07-10T02:20:16.453Z,17.96
2023-07-10T02:21:13.356Z,17.91
2023-07-10T02:22:10.182Z,18.17
2023-07-10T02:23:06.955Z,17.60
2023-07-10T02:24:04.421Z,17.80
2023-07-10T02:25:01.216Z,17.95
2023-07-10T02:25:58.053Z,17.63
2023-07-10T02:26:54.970Z,18.14
2023-07-10T02:27:51.874Z,18.24
2023-07-10T02:28:48.756Z,18.20
2023-07-10T02:29:45.545Z,17.56
2023-07-10T02:30:42.482Z,18.04
2023-07-10T02:31:39.563Z,17.47
2023-07-10T02:32:36.390Z,17.74
2023-07-10T02:33:35.388Z,17.10
2023-07-10T02:34:32.298Z,17.57
2023-07-10T02:35:29.117Z,17.51
2023-07-10T02:36:29.290Z,17.85
2023-07-10T02:37:26.090Z,17.84
2023-07-10T02:38:23.024Z,17.69
2023-07-10T02:39:19.823Z,17.27
2023-07-10T02:40:16.945Z,17.87
2023-07-10T02:41:13.793Z,17.48
2023-07-10T02:42:10.643Z,17.18
2023-07-10T02:43:07.447Z,17.48
2023-07-10T02:44:04.409Z,17.84
2023-07-10T02:45:01.232Z,17.68
2023-07-10T02:45:57.966Z,17.30
2023-07-10T02:46:54.876Z,16.68
2023-07-10T02:47:51.803Z,17.19
2023-07-10T02:48:48.706Z,17.84
2023-07-10T02:49:45.569Z,17.77
2023-07-10T02:50:43.667Z,17.62
2023-07-10T02:51:40.675Z,17.68
2023-07-10T02:52:37.485Z,17.76
2023-07-10T02:53:34.297Z,17.93
2023-07-10T02:54:31.154Z,17.18
2023-07-10T02:55:28.066Z,17.10
2023-07-10T02:56:24.915Z,17.70
2023-07-10T02:57:21.719Z,17.01
2023-07-10T02:58:18.988Z,17.54
2023-07-10T02:59:15.855Z,17.48
2023-07-10T03:00:13.141Z,17.27
2023-07-10T03:01:10.011Z,17.25
2023-07-10T03:02:07.029Z,17.65
2023-07-10T03:03:03.950Z,17.55
2023-07-10T03:04:00.795Z,17.67
2023-07-10T03:04:57.796Z,17.57
2023-07-10T03:06:02.663Z,17.63
2023-07-10T03:07:00.696Z,17.91
2023-07-10T03:07:59.260Z,16.54
2023-07-10T03:08:56.038Z,17.92
2023-07-10T03:09:52.831Z,17.12
2023-07-10T03:10:49.953Z,17.66
2023-07-10T03:11:46.859Z,17.80
2023-07-10T03:12:44.424Z,16.16
2023-07-10T03:13:41.278Z,17.15
2023-07-10T03:14:38.138Z,17.61
2023-07-10T03:15:34.966Z,17.69
2023-07-10T03:16:32.961Z,17.74
2023-07-10T03:17:29.900Z,17.65
2023-07-10T03:18:26.830Z,17.19
2023-07-10T03:19:23.618Z,17.00
2023-07-10T03:20:20.546Z,17.75
2023-07-10T03:21:17.348Z,17.41
2023-07-10T03:22:14.344Z,17.27
2023-07-10T03:23:11.186Z,17.81
2023-07-10T03:24:07.988Z,16.54
2023-07-10T03:25:05.241Z,17.61
2023-07-10T03:26:02.680Z,17.61
2023-07-10T03:27:00.051Z,17.24
2023-07-10T03:27:56.972Z,17.13
2023-07-10T03:29:10.521Z,17.89
2023-07-10T03:30:08.009Z,17.64
2023-07-10T03:31:05.195Z,17.18
2023-07-10T03:32:02.293Z,16.61
2023-07-10T03:32:59.075Z,17.27
2023-07-10T03:33:55.898Z,17.28
2023-07-10T03:34:52.736Z,17.48
2023-07-10T03:35:59.463Z,16.98
2023-07-10T03:36:56.523Z,17.33
2023-07-10T03:37:53.309Z,17.39
2023-07-10T03:38:50.071Z,17.81
2023-07-10T03:39:46.860Z,17.91
2023-07-10T03:40:53.759Z,17.51
2023-07-10T03:41:50.565Z,16.95
2023-07-10T03:42:47.367Z,17.80
2023-07-10T03:43:44.191Z,17.30
2023-07-10T03:44:41.059Z,17.26
2023-07-10T03:45:37.876Z,17.13
2023-07-10T03:46:34.816Z,17.05
2023-07-10T03:47:31.710Z,18.08
2023-07-10T03:48:28.474Z,17.76
2023-07-10T03:49:26.641Z,18.41
2023-07-10T03:50:23.456Z,18.36
2023-07-10T03:51:20.940Z,17.37
2023-07-10T03:52:17.805Z,18.18
2023-07-10T03:53:14.648Z,18.32
2023-07-10T03:54:11.852Z,17.90
2023-07-10T03:55:09.006Z,17.63
2023-07-10T03:56:06.077Z,18.42
2023-07-10T03:57:03.228Z,17.91
2023-07-10T03:58:00.214Z,18.42
2023-07-10T03:58:57.104Z,17.76
2023-07-10T03:59:54.077Z,18.26
2023-07-10T04:00:52.243Z,18.61
2023-07-10T04:01:49.098Z,17.97
2023-07-10T04:02:45.956Z,18.46
2023-07-10T04:03:43.245Z,18.72
2023-07-10T04:04:40.143Z,18.51
2023-07-10T04:05:36.903Z,17.84
2023-07-10T04:06:34.047Z,17.06
2023-07-10T04:07:30.874Z,18.01
2023-07-10T04:08:31.247Z,17.71
2023-07-10T04:09:28.085Z,18.29
2023-07-10T04:10:24.872Z,17.52
2023-07-10T04:11:23.365Z,18.42
2023-07-10T04:12:20.130Z,18.25
2023-07-10T04:13:18.841Z,18.03
2023-07-10T04:14:15.834Z,18.28
2023-07-10T04:15:12.849Z,18.45
2023-07-10T04:16:36.061Z,18.49
2023-07-10T04:17:35.128Z,17.63
2023-07-10T04:18:37.696Z,17.82
2023-07-10T04:19:34.492Z,18.12
2023-07-10T04:20:31.317Z,18.47
2023-07-10T04:21:30.597Z,18.05
2023-07-10T04:22:27.386Z,18.02
2023-07-10T04:23:24.281Z,18.59
2023-07-10T04:24:21.049Z,17.86
2023-07-10T04:25:17.947Z,17.73
2023-07-10T04:26:18.707Z,17.78
2023-07-10T04:27:15.591Z,17.45
2023-07-10T04:28:12.861Z,18.67
2023-07-10T04:29:11.489Z,18.44
2023-07-10T04:30:09.099Z,18.86
2023-07-10T04:31:06.072Z,17.20
2023-07-10T04:32:02.991Z,18.25
2023-07-10T04:32:59.762Z,18.49
2023-07-10T04:33:57.986Z,18.64
2023-07-10T04:34:54.828Z,18.70
2023-07-10T04:35:57.748Z,18.35
2023-07-10T04:36:54.702Z,18.44
2023-07-10T04:37:51.526Z,18.72
2023-07-10T04:38:49.991Z,17.58
2023-07-10T04:39:46.887Z,17.62
2023-07-10T04:40:58.215Z,18.55
2023-07-10T04:41:55.002Z,19.04
2023-07-10T04:42:52.981Z,18.85
2023-07-10T04:43:50.522Z,19.19
2023-07-10T04:44:47.429Z,18.33
2023-07-10T04:45:44.274Z,19.27
2023-07-10T04:46:42.728Z,18.72
2023-07-10T04:47:39.643Z,19.08
2023-07-10T04:48:36.708Z,18.76
2023-07-10T04:49:33.684Z,18.87
2023-07-10T04:50:30.517Z,19.47
2023-07-10T04:51:27.383Z,19.63
2023-07-10T04:52:25.063Z,19.39
2023-07-10T04:53:23.521Z,19.72
2023-07-10T04:54:20.360Z,19.52
2023-07-10T04:55:17.184Z,19.80
2023-07-10T04:56:17.290Z,19.89
2023-07-10T04:57:14.097Z,20.00
2023-07-10T04:58:12.197Z,19.20
2023-07-10T04:59:09.652Z,19.81
2023-07-10T05:00:08.394Z,20.00
2023-07-10T05:01:05.161Z,19.62
2023-07-10T05:02:02.011Z,19.74
2023-07-10T05:02:58.922Z,19.53
2023-07-10T05:03:57.721Z,20.27
2023-07-10T05:04:54.719Z,19.83
2023-07-10T05:05:59.678Z,19.97
2023-07-10T05:06:59.353Z,19.86
2023-07-10T05:07:56.477Z,19.84
2023-07-10T05:08:55.885Z,19.97
2023-07-10T05:09:52.654Z,20.07
2023-07-10T05:10:55.434Z,20.58
2023-07-10T05:11:52.360Z,20.60
2023-07-10T05:12:49.268Z,20.84
2023-07-10T05:13:46.214Z,20.62
2023-07-10T05:14:43.144Z,20.90
2023-07-10T05:15:40.026Z,20.33
2023-07-10T05:16:36.946Z,20.95
2023-07-10T05:17:33.788Z,20.44
2023-07-10T05:18:30.860Z,21.17
2023-07-10T05:19:28.062Z,20.16
2023-07-10T05:20:24.901Z,21.24
2023-07-10T05:21:22.329Z,20.30
2023-07-10T05:22:19.244Z,20.93
2023-07-10T05:23:19.312Z,21.28
2023-07-10T05:24:16.125Z,20.79
2023-07-10T05:25:13.012Z,20.60
2023-07-10T05:26:13.118Z,20.95
2023-07-10T05:27:09.898Z,21.49
2023-07-10T05:28:07.649Z,20.66
2023-07-10T05:29:04.614Z,21.47
2023-07-10T05:30:01.574Z,21.37
2023-07-10T05:31:02.010Z,21.04
2023-07-10T05:32:00.034Z,20.62
2023-07-10T05:32:57.152Z,20.75
2023-07-10T05:33:53.948Z,20.75
2023-07-10T05:34:50.714Z,21.66
2023-07-10T05:35:58.725Z,21.39
2023-07-10T05:36:55.584Z,21.15
2023-07-10T05:37:52.386Z,20.19
2023-07-10T05:38:50.219Z,21.35
2023-07-10T05:39:47.062Z,21.56
2023-07-10T05:40:43.978Z,21.93
2023-07-10T05:41:40.860Z,21.75
2023-07-10T05:42:39.539Z,21.47
2023-07-10T05:43:37.340Z,21.09
2023-07-10T05:44:34.327Z,21.23
2023-07-10T05:45:31.146Z,21.90
2023-07-10T05:46:28.065Z,21.91
2023-07-10T05:47:24.967Z,21.76
2023-07-10T05:48:22.697Z,21.93
2023-07-10T05:49:19.462Z,21.33
2023-07-10T05:50:16.224Z,21.76
2023-07-10T05:51:13.092Z,22.28
2023-07-10T05:52:10.052Z,22.05
2023-07-10T05:53:07.229Z,21.56
2023-07-10T05:54:04.214Z,21.40
2023-07-10T05:55:01.082Z,21.97
2023-07-10T05:55:59.073Z,21.84
2023-07-10T05:56:55.869Z,21.95
2023-07-10T05:57:52.765Z,22.32
2023-07-10T05:58:51.351Z,21.05
2023-07-10T05:59:48.175Z,22.22
2023-07-10T06:00:47.310Z,22.49
2023-07-10T06:01:44.244Z,20.91
2023-07-10T06:02:41.075Z,21.24
2023-07-10T06:03:38.245Z,21.18
2023-07-10T06:04:35.043Z,22.03
2023-07-10T06:05:31.965Z,22.08
2023-07-10T06:06:28.874Z,22.87
2023-07-10T06:07:25.904Z,22.66
2023-07-10T06:08:24.194Z,22.21
2023-07-10T06:09:21.138Z,22.21
2023-07-10T06:10:18.014Z,22.92
2023-07-10T06:11:14.835Z,21.88
2023-07-10T06:12:11.666Z,21.73
2023-07-10T06:13:08.623Z,22.39
2023-07-10T06:14:05.595Z,22.51
2023-07-10T06:15:02.815Z,22.53
2023-07-10T06:16:01.418Z,22.04
2023-07-10T06:16:58.322Z,22.85
2023-07-10T06:17:55.236Z,22.10
2023-07-10T06:18:52.151Z,20.59
2023-07-10T06:19:48.980Z,22.80
2023-07-10T06:20:53.215Z,22.85
2023-07-10T06:21:50.140Z,22.86
2023-07-10T06:22:46.992Z,22.43
2023-07-10T06:23:43.842Z,22.48
2023-07-10T06:24:41.127Z,21.94
2023-07-10T06:25:45.064Z,23.20
2023-07-10T06:26:42.123Z,22.79
2023-07-10T06:27:38.940Z,23.22
2023-07-10T06:28:36.222Z,22.53
2023-07-10T06:29:36.907Z,22.70
2023-07-10T06:30:33.758Z,23.34
2023-07-10T06:31:30.768Z,21.89
2023-07-10T06:32:27.836Z,23.41
2023-07-10T06:33:25.107Z,23.42
2023-07-10T06:34:21.842Z,23.39
2023-07-10T06:35:18.711Z,23.14
2023-07-10T06:36:15.487Z,23.56
2023-07-10T06:37:12.364Z,23.00
2023-07-10T06:38:09.424Z,23.42
2023-07-10T06:39:06.253Z,23.85
2023-07-10T06:40:08.843Z,24.11
2023-07-10T06:41:08.979Z,23.30
2023-07-10T06:42:06.029Z,23.72
2023-07-10T06:43:02.786Z,24.20
2023-07-10T06:43:59.613Z,22.86
2023-07-10T06:44:56.519Z,23.85
2023-07-10T06:45:57.032Z,23.93
2023-07-10T06:46:54.083Z,22.48
2023-07-10T06:47:51.064Z,24.03
2023-07-10T06:48:47.905Z,23.84
2023-07-10T06:49:44.773Z,23.55
2023-07-10T06:50:42.069Z,23.62
2023-07-10T06:51:39.317Z,23.51
2023-07-10T06:52:40.148Z,24.03
2023-07-10T06:53:36.977Z,24.01
2023-07-10T06:54:33.734Z,24.34
2023-07-10T06:55:31.251Z,23.03
2023-07-10T06:56:28.147Z,24.06
2023-07-10T06:57:25.121Z,23.97
2023-07-10T06:58:22.044Z,23.59
2023-07-10T06:59:22.967Z,24.43
2023-07-10T07:00:21.285Z,24.22
2023-07-10T07:01:18.114Z,24.26
2023-07-10T07:02:14.983Z,24.14
2023-07-10T07:03:11.916Z,23.74
2023-07-10T07:04:08.883Z,24.06
2023-07-10T07:05:08.779Z,24.15
2023-07-10T07:06:08.301Z,24.06
2023-07-10T07:07:05.976Z,24.78
2023-07-10T07:08:03.777Z,24.21
2023-07-10T07:09:00.545Z,23.04
2023-07-10T07:09:57.358Z,23.63
2023-07-10T07:10:55.223Z,24.36
2023-07-10T07:11:52.074Z,24.63
2023-07-10T07:12:48.960Z,24.37
2023-07-10T07:13:45.860Z,24.20
2023-07-10T07:14:42.929Z,24.42
2023-07-10T07:15:39.750Z,24.81
2023-07-10T07:16:36.593Z,24.67
2023-07-10T07:17:33.760Z,24.51
2023-07-10T07:18:32.687Z,24.61
2023-07-10T07:19:29.484Z,24.98
2023-07-10T07:20:26.336Z,25.03
2023-07-10T07:21:23.251Z,24.67
2023-07-10T07:22:20.270Z,24.22
2023-07-10T07:23:17.653Z,24.27
2023-07-10T07:24:14.591Z,24.76
2023-07-10T07:25:11.695Z,24.47
2023-07-10T07:26:09.027Z,24.64
2023-07-10T07:27:06.375Z,25.02
2023-07-10T07:28:05.042Z,25.11
2023-07-10T07:29:02.024Z,25.38
2023-07-10T07:29:59.045Z,24.01
2023-07-10T07:31:03.456Z,24.75
2023-07-10T07:32:00.657Z,25.23
2023-07-10T07:32:58.004Z,24.60
2023-07-10T07:33:56.113Z,25.23
2023-07-10T07:34:53.690Z,24.70
2023-07-10T07:35:50.485Z,25.38
2023-07-10T07:36:50.824Z,25.06
2023-07-10T07:37:47.621Z,25.07
2023-07-10T07:38:44.432Z,25.32
2023-07-10T07:39:41.575Z,24.81
2023-07-10T07:40:38.376Z,25.29
2023-07-10T07:41:35.602Z,24.77
2023-07-10T07:42:32.473Z,25.09
2023-07-10T07:43:30.117Z,25.15
2023-07-10T07:44:26.962Z,25.69
2023-07-10T07:45:24.206Z,25.21
2023-07-10T07:46:21.082Z,25.77
2023-07-10T07:47:17.981Z,24.68
2023-07-10T07:48:14.848Z,25.23
2023-07-10T07:49:11.768Z,25.57
2023-07-10T07:50:10.477Z,25.46
2023-07-10T07:51:09.197Z,25.62
2023-07-10T07:52:06.575Z,24.98
2023-07-10T07:53:03.330Z,25.12
2023-07-10T07:54:10.391Z,25.25
2023-07-10T07:55:08.485Z,25.50
2023-07-10T07:56:05.899Z,25.31
2023-07-10T07:57:03.072Z,25.84
2023-07-10T07:57:59.904Z,25.98
2023-07-10T07:58:56.703Z,25.84
2023-07-10T07:59:53.686Z,25.20
2023-07-10T08:00:51.515Z,25.24
2023-07-10T08:01:48.261Z,25.92
2023-07-10T08:02:45.128Z,25.89
2023-07-10T08:03:42.094Z,25.42
2023-07-10T08:04:39.055Z,25.86
2023-07-10T08:05:36.902Z,25.51
2023-07-10T08:06:34.956Z,24.94
2023-07-10T08:07:31.896Z,25.95
2023-07-10T08:08:28.794Z,25.97
2023-07-10T08:09:25.708Z,25.90
2023-07-10T08:10:22.510Z,26.10
2023-07-10T08:11:19.972Z,26.39
2023-07-10T08:12:16.777Z,26.22
2023-07-10T08:13:16.218Z,26.01
2023-07-10T08:14:13.093Z,24.76
2023-07-10T08:15:10.898Z,25.82
2023-07-10T08:16:07.985Z,26.34
2023-07-10T08:17:05.178Z,26.12
2023-07-10T08:18:02.667Z,25.27
2023-07-10T08:18:59.603Z,25.77
2023-07-10T08:19:56.543Z,26.03
2023-07-10T08:21:05.215Z,26.26
2023-07-10T08:22:02.062Z,26.19
2023-07-10T08:22:59.616Z,25.56
2023-07-10T08:23:56.335Z,26.41
2023-07-10T08:24:53.261Z,25.99
2023-07-10T08:25:50.087Z,26.41
2023-07-10T08:26:46.967Z,26.02
2023-07-10T08:27:45.716Z,26.08
2023-07-10T08:28:42.646Z,26.87
2023-07-10T08:29:39.424Z,26.25
2023-07-10T08:30:36.267Z,25.89
2023-07-10T08:31:33.058Z,24.76
2023-07-10T08:32:29.817Z,26.12
2023-07-10T08:33:27.175Z,26.72
2023-07-10T08:34:25.323Z,26.47
2023-07-10T08:35:23.396Z,27.26
2023-07-10T08:36:20.348Z,26.47
2023-07-10T08:37:17.188Z,27.02
2023-07-10T08:38:13.955Z,26.61
2023-07-10T08:39:11.444Z,26.71
2023-07-10T08:40:30.661Z,26.89
2023-07-10T08:41:27.485Z,27.19
2023-07-10T08:42:30.340Z,27.98
2023-07-10T08:43:39.702Z,27.82
2023-07-10T08:44:39.009Z,27.73
2023-07-10T08:45:38.519Z,27.93
2023-07-10T08:46:35.551Z,27.40
2023-07-10T08:47:40.433Z,28.12
2023-07-10T08:49:00.279Z,27.59
2023-07-10T08:50:05.484Z,27.50
2023-07-10T08:51:37.306Z,27.24
2023-07-10T08:53:25.759Z,27.33
2023-07-10T08:54:22.692Z,27.61
2023-07-10T08:55:28.942Z,26.77
2023-07-10T08:56:31.918Z,27.77
2023-07-10T08:57:37.455Z,28.06
2023-07-10T08:58:38.079Z,27.05
2023-07-10T08:59:53.806Z,27.42
2023-07-10T09:00:57.440Z,26.89
2023-07-10T09:01:57.383Z,26.84
2023-07-10T09:02:57.407Z,27.63
2023-07-10T09:03:59.837Z,27.42
2023-07-10T09:04:57.416Z,26.53
2023-07-10T09:05:54.389Z,25.76
2023-07-10T09:06:55.307Z,27.52
2023-07-10T09:07:53.623Z,27.23
2023-07-10T09:08:54.430Z,26.93
2023-07-10T09:10:00.194Z,27.17
2023-07-10T09:11:02.665Z,27.55
2023-07-10T09:12:06.415Z,27.53
2023-07-10T09:13:04.740Z,28.05
2023-07-10T09:14:21.893Z,27.87
2023-07-10T09:15:35.866Z,27.83
2023-07-10T09:16:33.215Z,27.89
2023-07-10T09:17:50.856Z,28.05
2023-07-10T09:19:07.626Z,27.85
2023-07-10T09:20:10.129Z,27.52
2023-07-10T09:21:20.490Z,27.82
2023-07-10T09:22:17.279Z,27.77
2023-07-10T09:23:26.151Z,26.32
2023-07-10T09:24:24.453Z,26.51
2023-07-10T09:25:23.075Z,26.97
2023-07-10T09:26:26.201Z,27.64
2023-07-10T09:27:23.030Z,26.23
2023-07-10T09:28:19.896Z,26.92
2023-07-10T09:29:30.958Z,26.78
2023-07-10T09:30:31.738Z,27.50
2023-07-10T09:31:56.191Z,27.68
2023-07-10T09:33:02.102Z,27.13
2023-07-10T09:34:02.864Z,27.46
2023-07-10T09:35:00.663Z,27.58
2023-07-10T09:35:57.652Z,27.15
2023-07-10T09:36:58.062Z,27.84
2023-07-10T09:37:55.235Z,27.51
2023-07-10T09:38:53.456Z,27.83
2023-07-10T09:39:50.684Z,26.59
2023-07-10T09:40:49.964Z,28.13
2023-07-10T09:41:48.827Z,28.03
2023-07-10T09:42:45.687Z,27.74
2023-07-10T09:43:51.635Z,27.08
2023-07-10T09:44:55.773Z,27.97
2023-07-10T09:45:58.131Z,27.88
2023-07-10T09:47:11.131Z,27.14
2023-07-10T09:48:18.239Z,27.93
2023-07-10T09:49:24.327Z,27.91
2023-07-10T09:50:21.284Z,27.55
2023-07-10T09:51:19.057Z,27.39
2023-07-10T09:52:29.941Z,27.37
2023-07-10T09:53:37.412Z,27.84
2023-07-10T09:54:40.565Z,27.43
2023-07-10T09:55:44.897Z,27.56
2023-07-10T09:56:41.841Z,27.71
2023-07-10T09:57:59.353Z,27.98
2023-07-10T09:58:57.680Z,27.33
2023-07-10T09:59:57.448Z,27.64
2023-07-10T10:00:54.438Z,27.85
2023-07-10T10:01:54.399Z,27.94
2023-07-10T10:03:13.733Z,27.57
2023-07-10T10:04:11.497Z,27.40
2023-07-10T10:05:14.543Z,28.43
2023-07-10T10:06:26.829Z,27.91
2023-07-10T10:07:24.212Z,28.39
2023-07-10T10:08:33.851Z,27.59
2023-07-10T10:09:31.500Z,28.49
2023-07-10T10:10:31.972Z,28.19
2023-07-10T10:11:44.543Z,27.60
2023-07-10T10:12:42.118Z,27.93
2023-07-10T10:13:45.137Z,26.53
2023-07-10T10:15:01.946Z,27.80
2023-07-10T10:16:05.739Z,27.14
2023-07-10T10:17:10.740Z,27.62
2023-07-10T10:18:21.255Z,27.53
2023-07-10T10:19:31.827Z,27.86
2023-07-10T10:20:35.866Z,27.88
2023-07-10T10:21:35.649Z,27.23
2023-07-10T10:22:33.595Z,27.99
2023-07-10T10:23:38.403Z,27.93
2023-07-10T10:24:35.293Z,27.77
2023-07-10T10:25:41.970Z,27.76
2023-07-10T10:27:02.753Z,27.57
2023-07-10T10:28:05.410Z,28.23
2023-07-10T10:29:23.700Z,28.43
2023-07-10T10:30:33.613Z,28.25
2023-07-10T10:31:40.281Z,27.16
2023-07-10T10:32:49.702Z,28.14
2023-07-10T10:34:24.782Z,28.10
2023-07-10T10:35:39.233Z,27.94
2023-07-10T10:36:59.577Z,28.08
2023-07-10T10:38:36.781Z,28.12
2023-07-10T10:39:43.554Z,28.18
2023-07-10T10:40:52.948Z,28.42
2023-07-10T10:42:01.675Z,27.99
2023-07-10T10:43:30.609Z,28.40
2023-07-10T10:44:42.735Z,27.81
2023-07-10T10:45:48.842Z,28.06
2023-07-10T10:46:59.975Z,27.83
2023-07-10T10:48:16.777Z,28.01
2023-07-10T10:49:42.908Z,28.39
2023-07-10T10:51:11.793Z,28.24
2023-07-10T10:52:37.700Z,27.31
2023-07-10T10:53:47.047Z,28.12
2023-07-10T10:54:53.541Z,28.14
2023-07-10T10:55:58.094Z,27.98
2023-07-10T10:57:42.047Z,27.90
2023-07-10T10:58:58.436Z,27.76
2023-07-10T11:00:36.395Z,27.85
2023-07-10T11:01:42.938Z,27.87
2023-07-10T11:02:40.042Z,28.33
2023-07-10T11:03:50.329Z,27.28
2023-07-10T11:04:56.357Z,27.95
2023-07-10T11:05:58.956Z,28.38
2023-07-10T11:06:58.749Z,28.20
2023-07-10T11:08:03.088Z,28.39
2023-07-10T11:09:09.226Z,28.52
2023-07-10T11:10:16.777Z,28.17
2023-07-10T11:11:30.345Z,28.49
2023-07-10T11:12:31.488Z,28.61
2023-07-10T11:13:33.966Z,28.20
2023-07-10T11:14:30.992Z,27.84
2023-07-10T11:15:33.106Z,28.57
2023-07-10T11:16:33.571Z,28.65
2023-07-10T11:17:30.714Z,28.94
2023-07-10T11:18:27.940Z,28.94
2023-07-10T11:19:29.865Z,27.18
2023-07-10T11:20:28.131Z,28.13
2023-07-10T11:21:24.991Z,27.50
2023-07-10T11:22:30.358Z,28.37
2023-07-10T11:23:51.179Z,28.46
2023-07-10T11:24:53.354Z,28.08
2023-07-10T11:26:02.299Z,28.31
2023-07-10T11:27:10.018Z,28.06
2023-07-10T11:28:22.742Z,28.16
2023-07-10T11:29:31.796Z,28.64
2023-07-10T11:30:35.040Z,28.77
2023-07-10T11:31:32.455Z,28.45
2023-07-10T11:32:29.582Z,28.69
2023-07-10T11:33:26.462Z,27.81
2023-07-10T11:34:23.134Z,28.71
2023-07-10T11:35:22.480Z,28.58
2023-07-10T11:36:19.264Z,28.73
2023-07-10T11:38:00.509Z,28.26
2023-07-10T11:39:12.521Z,28.24
2023-07-10T11:40:27.469Z,28.30
2023-07-10T11:41:32.624Z,27.94
2023-07-10T11:42:31.075Z,27.10
2023-07-10T11:43:28.051Z,27.93
2023-07-10T11:44:30.716Z,27.91
2023-07-10T11:45:44.627Z,27.55
2023-07-10T11:47:00.519Z,28.55
2023-07-10T11:47:58.131Z,28.01
2023-07-10T11:49:05.534Z,28.65
2023-07-10T11:50:02.297Z,28.76
2023-07-10T11:51:03.173Z,28.86
2023-07-10T11:52:14.921Z,28.81
2023-07-10T11:53:14.861Z,29.13
2023-07-10T11:54:11.620Z,28.94
2023-07-10T11:55:26.480Z,28.12
2023-07-10T11:56:26.428Z,27.85
2023-07-10T11:57:25.868Z,27.96
2023-07-10T11:58:31.680Z,27.87
2023-07-10T11:59:28.541Z,28.04
2023-07-10T12:00:27.933Z,28.76
2023-07-10T12:01:25.604Z,28.32
2023-07-10T12:02:31.366Z,28.61
2023-07-10T12:03:34.766Z,28.46
2023-07-10T12:04:31.729Z,28.41
2023-07-10T12:05:31.287Z,28.76
2023-07-10T12:06:28.156Z,28.34
2023-07-10T12:07:24.933Z,27.67
2023-07-10T12:08:24.861Z,28.67
2023-07-10T12:09:21.730Z,28.48
2023-07-10T12:10:18.821Z,28.16
2023-07-10T12:11:38.322Z,28.78
2023-07-10T12:12:35.164Z,28.34
2023-07-10T12:13:32.899Z,28.49
2023-07-10T12:14:30.241Z,28.20
2023-07-10T12:15:28.396Z,28.11
2023-07-10T12:16:40.640Z,28.43
2023-07-10T12:17:42.269Z,27.80
2023-07-10T12:18:41.304Z,27.93
2023-07-10T12:19:39.296Z,28.56
2023-07-10T12:20:37.314Z,28.84
2023-07-10T12:21:34.700Z,28.33
2023-07-10T12:22:37.900Z,28.48
2023-07-10T12:23:34.697Z,29.07
2023-07-10T12:24:31.538Z,28.68
2023-07-10T12:25:28.406Z,28.95
2023-07-10T12:27:05.377Z,29.04
2023-07-10T12:28:44.575Z,28.38
2023-07-10T12:29:56.620Z,28.22
2023-07-10T12:30:55.585Z,28.27
2023-07-10T12:31:52.394Z,28.34
2023-07-10T12:32:54.430Z,28.24
2023-07-10T12:33:54.803Z,28.46
2023-07-10T12:34:56.694Z,28.57
2023-07-10T12:35:53.765Z,28.48
2023-07-10T12:36:56.799Z,28.85
2023-07-10T12:37:54.187Z,28.75
2023-07-10T12:38:52.743Z,28.87
2023-07-10T12:39:52.529Z,28.82
2023-07-10T12:40:49.468Z,28.02
2023-07-10T12:41:46.655Z,28.38
2023-07-10T12:42:45.379Z,28.00
2023-07-10T12:43:49.558Z,28.57
2023-07-10T12:44:47.766Z,27.34
2023-07-10T12:45:44.640Z,28.18
2023-07-10T12:46:43.281Z,28.92
2023-07-10T12:47:53.249Z,28.01
2023-07-10T12:49:02.817Z,27.85
2023-07-10T12:50:00.125Z,28.07
2023-07-10T12:51:02.104Z,28.04
2023-07-10T12:52:01.328Z,28.46
2023-07-10T12:52:58.203Z,28.62
2023-07-10T12:53:56.141Z,28.67
2023-07-10T12:54:55.819Z,28.61
2023-07-10T12:56:28.961Z,28.79
2023-07-10T12:57:31.766Z,29.15
2023-07-10T12:58:29.389Z,28.80